Alert, Canada
Current Conditions -  °F | °C
As of 2:00 PM on Tuesday 21 Oct 2014 (Local Time) from CYLT Reporting Station
Light Snow Light Snow  
Wind Chill: -33°   Ceiling: 400
Heat Index: -22°   Visibility: 5mi
Dew Point: -25°   Wind: 12mph
Humidity: 77%   Direction: 250°WSW
Pressure: 30.05"   Gusts: NA
Location:  82.47°N, 62.5°W
Report Text: CYLT 211800Z 25010KT 5SM -SN BR BKN004 OVC007 M22/M25 A3005 RMKST6ST2 WND ESTD PCPN VRY LGT SLP182
Loading
Personal Weather Stations






























Interactive Weather Map
Tropical Storm Tracking
New forecast layout! Learn more

10-Day Weather Forecast

Advertisements
Track Severe Weather on mobile